CWFD

Cape Dyer Airport

Canada
METAR CWFD 181300Z AUTO 36019G27KT ////SM //// NCD M27/M30 A2934
Observed Flight Rules
Jan-18 @ 13:00 UTC (44 minutes ago)
Wind Clouds
360° at 19 knots
 Gusting to 27 knots
  • Clear skies
Temperatures Readings
Current -27°C / -17°F
Dewpoint -30°C / -22°F
Humidity 76%
Altimeter 29.34" Hg
Pressure 993.52 hPa
Elevation 393
METAR CWFD 181300Z AUTO 36019G27KT ////SM //// NCD M27/M30 A2934
Observed Flight Rules
Jan-18 @ 13:00 UTC
(44 minutes ago)
Wind
360° at 19 knots
 Gusting to 27 knots
Clouds
  • Clear skies
Temperature Dewpoint
-27°C / -17°F -30°C / -22°F
Humidity Altimeter Pressure
76% 29.34" Hg 993.52 hPa